»·PEaware :: CAP428 KOTH-KCVO

CAP428 :: KOTH-KCVO

FLIGHT INFORMATION

Flight Status: Arrived
Operator: Unknown
More flights by this operator :: More flights under this callsign
Pilot: Armando C. (16967)
Aircraft: CESSNA 182 SKYLANE
(C182)
More flights by this aircraft type
Origin: KOTH North Bend Mun
United States
Destination: KCVO Corvallis Mun
United States
More flights between these airports :: More routes between these airports
Route: ZUBOR V536 TICKY
File this flight plan on PilotEdge
Remarks:
Altitude:
(Current/Filed)
10,000ft
Speed:
(Current/Filed)
135kts
Departed: 23-Dec-17 06:47 AM
Arrived: 23-Dec-17 07:34 AM
Distance/Time
Traveled:
77nm/0:46
Distance/Time
To Go:
Arrived

Flight Plot

Page will automatically refresh every two minutes.

Flight plan parsing failed; only flown route is shown


Map Options




Map Legend


Flown Route
Filed Route
Departure Airport
Arrival Airport
Navaid (VOR, NDB)
Fix

Horizontal Profiles

Position Reports

Time Latitude Longitude Heading Altitude Ground
Speed
23-Dec-17 06:40 43.415814 -124.246881 242 20ft 0kts
23-Dec-17 06:41 43.415814 -124.246881 242 20ft 0kts
23-Dec-17 06:42 43.415813 -124.246883 242 20ft 0kts
23-Dec-17 06:43 43.415813 -124.246884 242 20ft 0kts
23-Dec-17 06:44 43.415812 -124.246885 242 20ft 0kts
23-Dec-17 06:45 43.415812 -124.246887 242 20ft 0kts
23-Dec-17 06:46 43.415811 -124.246888 242 20ft 0kts
23-Dec-17 06:47 43.416169 -124.246453 24 20ft 7kts
23-Dec-17 06:48 43.417222 -124.245806 343 20ft 11kts
23-Dec-17 06:49 43.418928 -124.247191 351 20ft 11kts
23-Dec-17 06:50 43.419176 -124.246942 59 20ft 0kts
23-Dec-17 06:51 43.419185 -124.246923 59 20ft 0kts
23-Dec-17 06:52 43.419311 -124.246627 59 20ft 11kts
23-Dec-17 06:53 43.409019 -124.238179 154 362ft 74kts
23-Dec-17 06:54 43.400225 -124.251775 310 1177ft 99kts
23-Dec-17 06:55 43.421178 -124.270921 16 2012ft 97kts
23-Dec-17 06:56 43.441962 -124.249593 64 2568ft 91kts
23-Dec-17 06:57 43.454694 -124.218441 52 3050ft 101kts
23-Dec-17 06:58 43.473818 -124.192543 31 3853ft 97kts
23-Dec-17 06:59 43.495757 -124.171097 29 4649ft 97kts
23-Dec-17 07:00 43.517935 -124.149656 28 5433ft 97kts
23-Dec-17 07:01 43.540439 -124.127877 28 6190ft 98kts
23-Dec-17 07:02 43.563428 -124.105601 26 7006ft 100kts
23-Dec-17 07:03 43.586776 -124.082970 24 7823ft 103kts
23-Dec-17 07:04 43.610434 -124.059960 23 8625ft 105kts
23-Dec-17 07:05 43.636929 -124.036632 13 9031ft 129kts
23-Dec-17 07:06 43.672498 -124.015634 14 9011ft 143kts
23-Dec-17 07:07 43.709455 -123.993506 14 9009ft 145kts
23-Dec-17 07:08 43.746600 -123.971244 14 9010ft 145kts
23-Dec-17 07:09 43.783806 -123.948915 14 9008ft 145kts
23-Dec-17 07:10 43.820959 -123.926597 14 9009ft 144kts
23-Dec-17 07:11 43.857733 -123.904487 14 9008ft 144kts
23-Dec-17 07:12 43.894405 -123.882396 14 9007ft 143kts
23-Dec-17 07:13 43.930958 -123.860352 14 9007ft 143kts
23-Dec-17 07:14 43.967176 -123.838472 14 9007ft 140kts
23-Dec-17 07:15 44.003018 -123.816806 14 9006ft 140kts
23-Dec-17 07:16 44.038775 -123.795158 14 9007ft 140kts
23-Dec-17 07:17 44.074324 -123.773608 14 9006ft 139kts
23-Dec-17 07:18 44.110215 -123.751791 15 8760ft 145kts
23-Dec-17 07:19 44.136716 -123.709025 55 8208ft 157kts
23-Dec-17 07:20 44.158467 -123.656009 51 7520ft 155kts
23-Dec-17 07:21 44.180749 -123.605594 52 6821ft 151kts
23-Dec-17 07:22 44.202432 -123.555391 54 6125ft 150kts
23-Dec-17 07:23 44.224111 -123.505809 53 5426ft 149kts
23-Dec-17 07:24 44.245954 -123.456885 53 4767ft 146kts
23-Dec-17 07:25 44.267358 -123.409048 54 4167ft 144kts
23-Dec-17 07:26 44.288369 -123.361981 54 3709ft 135kts
23-Dec-17 07:27 44.290323 -123.319601 156 3745ft 130kts
23-Dec-17 07:28 44.255572 -123.301933 164 3688ft 132kts
23-Dec-17 07:29 44.229081 -123.313294 293 3705ft 112kts
23-Dec-17 07:30 44.257273 -123.330549 354 3696ft 117kts
23-Dec-17 07:31 44.286995 -123.327780 2 3684ft 97kts
23-Dec-17 07:32 44.314447 -123.323245 3 3429ft 103kts
23-Dec-17 07:33 44.342788 -123.318433 3 2927ft 102kts
23-Dec-17 07:34 44.370784 -123.313686 5 2432ft 100kts
23-Dec-17 07:35 44.396974 -123.309277 9 2025ft 84kts
23-Dec-17 07:36 44.419047 -123.305479 7 1604ft 77kts
23-Dec-17 07:37 44.440849 -123.301772 8 1214ft 81kts
23-Dec-17 07:38 44.464031 -123.297817 8 757ft 84kts
23-Dec-17 07:39 44.487522 -123.293798 8 301ft 84kts
23-Dec-17 07:40 44.501162 -123.291454 6 249ft 31kts
23-Dec-17 07:41 44.502440 -123.288570 111 249ft 5kts
23-Dec-17 07:42 44.501448 -123.284833 111 249ft 7kts
23-Dec-17 07:43 44.502460 -123.283037 145 249ft 1kts
23-Dec-17 07:44 44.502454 -123.283032 149 249ft 0kts
23-Dec-17 07:45 44.502454 -123.283032 149 249ft 0kts

Navigation Log

Ident Type
Flight plan parsing failed, navigation log unavailable